Time;durP1;ratioP1;P1;durP2;ratioP2;P2;SDS_P1;SDS_P2;PMS_P1;PMS_P2;Temp;Humidity;BMP_temperature;BMP_pressure;BME280_temperature;BME280_humidity;BME280_pressure;Samples;Min_cycle;Max_cycle;Signal;HPM_P1;HPM_P2
2022/06/27 00:00:38;;;;;;;1.98;1.67;;;;;;;28.16;41.23;101420.84;5067776;28;20048;-67
2022/06/27 00:03:03;;;;;;;4.43;1.80;;;;;;;28.13;41.55;101411.13;5067815;28;20021;-67
2022/06/27 00:05:28;;;;;;;1.90;1.65;;;;;;;28.13;41.69;101410.22;5068289;28;20043;-68
2022/06/27 00:07:54;;;;;;;1.80;1.50;;;;;;;28.13;41.43;101412.91;5068032;28;20079;-67
2022/06/27 00:10:19;;;;;;;2.08;1.70;;;;;;;28.14;41.31;101414.69;5062625;28;20059;-67
2022/06/27 00:12:45;;;;;;;2.08;1.85;;;;;;;28.13;41.32;101410.22;5048057;28;20037;-67
2022/06/27 00:15:10;;;;;;;2.20;1.60;;;;;;;28.13;41.31;101412.91;5046611;28;20032;-67
2022/06/27 00:17:36;;;;;;;2.42;1.80;;;;;;;28.12;41.62;101414.72;5065303;28;20032;-67
2022/06/27 00:20:02;;;;;;;2.05;1.63;;;;;;;28.11;41.48;101415.69;5063330;28;20025;-67
2022/06/27 00:22:29;;;;;;;2.22;1.70;;;;;;;28.10;41.68;101416.63;5048031;28;20105;-67
2022/06/27 00:24:54;;;;;;;2.03;1.52;;;;;;;28.09;41.28;101430.97;5048206;28;20037;-67
2022/06/27 00:27:20;;;;;;;2.42;1.63;;;;;;;28.09;41.48;101430.09;5049142;28;20086;-68
2022/06/27 00:29:45;;;;;;;2.35;1.70;;;;;;;28.08;41.69;101423.00;5064688;28;20063;-68
2022/06/27 00:32:11;;;;;;;3.25;1.70;;;;;;;28.10;41.33;101435.41;5050280;28;20422;-67
2022/06/27 00:34:36;;;;;;;2.10;1.55;;;;;;;28.10;41.51;101438.09;5064370;28;20037;-67
2022/06/27 00:37:02;;;;;;;1.67;1.50;;;;;;;28.10;41.21;101445.25;5055923;28;20054;-67
2022/06/27 00:39:27;;;;;;;1.85;1.55;;;;;;;28.09;41.54;101447.06;5067901;28;20032;-68
2022/06/27 00:41:53;;;;;;;1.95;1.60;;;;;;;28.10;41.44;101458.66;5066926;28;20037;-67
2022/06/27 00:44:36;;;;;;;2.08;1.70;;;;;;;28.08;41.22;101465.91;5067487;28;20406;-67
2022/06/27 00:47:07;;;;;;;2.38;1.70;;;;;;;28.08;41.57;101471.25;5067706;28;20081;-67
2022/06/27 00:49:34;;;;;;;1.90;1.70;;;;;;;28.11;41.19;101471.13;5067186;28;20032;-67
2022/06/27 00:51:59;;;;;;;2.08;1.65;;;;;;;28.12;41.26;101471.03;5066610;28;20510;-67
2022/06/27 00:54:25;;;;;;;2.25;1.75;;;;;;;28.13;41.23;101463.84;5052276;28;20028;-67
2022/06/27 00:56:53;;;;;;;1.67;1.52;;;;;;;28.13;41.24;101469.22;5067625;28;20052;-67
2022/06/27 00:59:19;;;;;;;2.45;1.70;;;;;;;28.12;41.26;101462.97;5060016;28;20083;-67
2022/06/27 01:01:44;;;;;;;2.40;1.80;;;;;;;28.07;41.63;101459.66;5050890;28;20037;-67
2022/06/27 01:04:10;;;;;;;2.58;1.77;;;;;;;28.06;41.66;101447.19;5064657;28;20524;-67
2022/06/27 01:06:35;;;;;;;2.08;1.73;;;;;;;28.06;41.39;101432.94;5053548;28;20437;-68
2022/06/27 01:09:01;;;;;;;2.22;1.65;;;;;;;28.05;41.40;101429.41;5064972;28;20541;-67
2022/06/27 01:11:26;;;;;;;2.13;1.60;;;;;;;28.03;41.58;101430.41;5060064;28;20388;-67
2022/06/27 01:13:52;;;;;;;2.30;1.80;;;;;;;28.03;41.55;101433.09;5055412;28;20104;-67
2022/06/27 01:16:18;;;;;;;1.98;1.70;;;;;;;28.04;41.26;101443.75;5070923;28;20033;-67
2022/06/27 01:18:43;;;;;;;2.47;1.70;;;;;;;28.05;41.35;101434.78;5069517;28;20089;-67
2022/06/27 01:21:24;;;;;;;2.00;1.60;;;;;;;28.03;41.34;101427.75;5069524;28;20041;-68
2022/06/27 01:23:51;;;;;;;3.45;1.65;;;;;;;28.02;41.41;101437.59;5057534;28;20029;-67
2022/06/27 01:26:18;;;;;;;1.60;1.50;;;;;;;28.02;41.58;101459.03;5050826;28;20467;-67
2022/06/27 01:28:44;;;;;;;1.83;1.63;;;;;;;28.02;41.35;101455.47;5062309;28;20115;-67
2022/06/27 01:31:13;;;;;;;3.33;1.63;;;;;;;28.01;41.56;101459.09;5070754;28;20108;-67
2022/06/27 01:33:39;;;;;;;1.83;1.60;;;;;;;28.02;41.43;101464.41;5070693;28;20020;-67
2022/06/27 01:38:54;;;;;;;2.78;1.60;;;;;;;28.01;41.37;101473.38;5049599;28;20051;-68
2022/06/27 01:41:20;;;;;;;2.00;1.70;;;;;;;28.01;41.54;101467.13;5048992;28;20052;-67
2022/06/27 01:43:47;;;;;;;1.85;1.60;;;;;;;28.00;41.43;101465.41;5050572;28;20151;-67
2022/06/27 01:46:12;;;;;;;2.13;1.80;;;;;;;28.00;41.65;101462.72;5050125;28;20091;-67
2022/06/27 01:48:39;;;;;;;2.08;1.60;;;;;;;27.99;41.43;101474.41;5062358;28;20750;-67
2022/06/27 01:51:08;;;;;;;1.70;1.60;;;;;;;28.00;41.53;101481.47;5070306;28;20127;-67
2022/06/27 01:53:34;;;;;;;1.63;1.50;;;;;;;28.00;41.41;101476.13;5061459;28;20028;-67
2022/06/27 01:55:59;;;;;;;2.08;1.58;;;;;;;28.00;41.43;101474.31;5057540;28;20042;-67
2022/06/27 01:58:25;;;;;;;1.92;1.70;;;;;;;27.99;41.56;101458.34;5049506;28;20374;-67
2022/06/27 02:00:50;;;;;;;2.45;1.80;;;;;;;27.98;41.72;101457.47;5054621;28;20028;-67
2022/06/27 02:03:16;;;;;;;2.83;1.67;;;;;;;27.99;41.60;101450.28;5069978;28;20086;-67
2022/06/27 02:05:41;;;;;;;2.40;1.63;;;;;;;27.98;41.61;101429.78;5069803;28;20390;-67
2022/06/27 02:08:09;;;;;;;1.73;1.50;;;;;;;27.96;41.40;101429.00;5050576;28;20025;-67
2022/06/27 02:10:34;;;;;;;1.77;1.50;;;;;;;27.96;41.43;101432.53;5059942;28;20025;-67
2022/06/27 02:13:00;;;;;;;2.70;1.65;;;;;;;27.97;41.65;101436.09;5070040;28;20055;-67
2022/06/27 02:15:25;;;;;;;2.05;1.60;;;;;;;28.00;41.40;101452.00;5069648;28;20032;-67
2022/06/27 02:17:51;;;;;;;1.88;1.67;;;;;;;28.01;41.55;101443.88;5069385;28;20028;-68
2022/06/27 02:20:16;;;;;;;2.50;1.63;;;;;;;28.00;41.15;101441.28;5069580;28;20033;-67
2022/06/27 02:22:42;;;;;;;1.80;1.52;;;;;;;27.99;41.63;101437.75;5070049;28;20025;-67
2022/06/27 02:25:08;;;;;;;1.80;1.60;;;;;;;28.00;41.29;101426.06;5057241;28;20036;-67
2022/06/27 02:27:35;;;;;;;2.53;1.80;;;;;;;27.98;41.42;101419.94;5049538;28;20036;-67
2022/06/27 02:30:01;;;;;;;2.13;1.50;;;;;;;27.98;41.35;101419.94;5049596;28;20044;-67
2022/06/27 02:32:28;;;;;;;1.80;1.48;;;;;;;27.95;41.43;101427.25;5049788;28;20029;-68
2022/06/27 02:34:56;;;;;;;2.03;1.50;;;;;;;27.93;41.39;101435.38;5059173;28;20480;-67
2022/06/27 02:37:23;;;;;;;1.88;1.50;;;;;;;27.91;41.63;101428.34;5049987;28;20033;-67
2022/06/27 02:39:49;;;;;;;2.00;1.70;;;;;;;27.90;41.74;101434.66;5049605;28;20042;-67
2022/06/27 02:42:17;;;;;;;1.70;1.60;;;;;;;27.88;41.52;101439.22;5048569;28;20041;-67
2022/06/27 02:44:48;;;;;;;2.33;1.70;;;;;;;27.88;41.90;101425.81;5059843;28;20036;-67
2022/06/27 02:47:13;;;;;;;1.83;1.60;;;;;;;27.88;41.83;101432.03;5069397;28;20059;-67
2022/06/27 02:49:39;;;;;;;2.60;1.80;;;;;;;27.87;41.79;101419.63;5068506;28;20025;-67
2022/06/27 02:52:19;;;;;;;1.90;1.63;;;;;;;27.86;41.71;101412.50;5069506;28;20045;-67
2022/06/27 02:54:49;;;;;;;1.90;1.55;;;;;;;27.86;41.87;101407.16;5057553;28;20032;-67
2022/06/27 02:57:20;;;;;;;3.03;1.70;;;;;;;27.88;41.60;101390.97;5063297;28;20021;-67
2022/06/27 02:59:48;;;;;;;1.73;1.63;;;;;;;27.85;41.80;101395.56;5047892;28;20549;-67
2022/06/27 03:02:15;;;;;;;2.40;1.70;;;;;;;27.84;41.75;101401.00;5046991;28;20569;-67
2022/06/27 03:04:41;;;;;;;1.85;1.52;;;;;;;27.85;41.45;101400.94;5056183;28;20036;-68
2022/06/27 03:07:06;;;;;;;1.70;1.60;;;;;;;27.84;41.62;101407.22;5054014;28;20081;-67
2022/06/27 03:09:31;;;;;;;1.77;1.50;;;;;;;27.84;41.60;101409.91;5069021;28;20036;-67
2022/06/27 03:11:57;;;;;;;2.58;1.50;;;;;;;27.85;41.80;101408.09;5068680;28;20111;-67
2022/06/27 03:14:22;;;;;;;1.73;1.50;;;;;;;27.83;41.86;101412.66;5068998;28;20037;-67
2022/06/27 03:16:47;;;;;;;1.80;1.50;;;;;;;27.84;41.67;101422.44;5068115;28;20029;-67
2022/06/27 03:19:13;;;;;;;1.90;1.70;;;;;;;27.83;41.65;101428.72;5064862;28;20166;-67
2022/06/27 03:21:39;;;;;;;1.63;1.40;;;;;;;27.84;41.74;101430.47;5054584;28;20028;-67
2022/06/27 03:24:05;;;;;;;1.73;1.60;;;;;;;27.81;41.87;101426.13;5068010;28;20115;-67
2022/06/27 03:26:30;;;;;;;1.60;1.50;;;;;;;27.83;41.63;101418.00;5068229;28;20111;-67
2022/06/27 03:28:56;;;;;;;3.35;1.50;;;;;;;27.87;41.51;101418.75;5068505;28;20066;-67
2022/06/27 03:31:21;;;;;;;2.75;1.48;;;;;;;27.88;41.46;101421.31;5067341;28;20043;-67
2022/06/27 03:33:47;;;;;;;1.73;1.50;;;;;;;27.84;41.67;101428.66;5068598;28;20045;-67
2022/06/27 03:36:12;;;;;;;2.08;1.58;;;;;;;27.87;41.52;101430.34;5051235;28;20123;-67
2022/06/27 03:38:37;;;;;;;1.70;1.60;;;;;;;27.86;41.48;101433.94;5048647;28;20037;-67
2022/06/27 03:41:04;;;;;;;1.88;1.65;;;;;;;27.86;41.33;101442.00;5048318;28;20053;-67
2022/06/27 03:43:29;;;;;;;1.85;1.58;;;;;;;27.84;41.58;101438.50;5048464;28;20110;-67
2022/06/27 03:45:56;;;;;;;2.40;1.70;;;;;;;27.80;41.54;101442.28;5064311;28;20060;-67
2022/06/27 03:51:25;;;;;;;;;;;;;;;27.84;41.74;101436.69;5025266;28;20136;-65
2022/06/27 03:53:52;;;;;;;2.17;1.67;;;;;;;27.80;41.82;101427.09;5025880;28;20083;-67
2022/06/27 03:56:17;;;;;;;1.40;1.30;;;;;;;27.82;41.51;101409.09;5036199;28;20052;-67
2022/06/27 03:58:43;;;;;;;1.85;1.50;;;;;;;27.79;41.85;101411.94;5048341;28;20025;-68
2022/06/27 04:01:08;;;;;;;1.95;1.65;;;;;;;27.82;41.61;101409.09;5055073;28;20039;-67
2022/06/27 04:03:33;;;;;;;1.75;1.58;;;;;;;27.78;41.43;101401.31;5050232;28;20055;-68
2022/06/27 04:05:59;;;;;;;1.77;1.60;;;;;;;27.78;41.65;101396.81;5059805;28;20073;-68
2022/06/27 04:08:24;;;;;;;1.67;1.52;;;;;;;27.76;41.84;101404.03;5054392;28;20116;-67
2022/06/27 04:10:50;;;;;;;1.70;1.60;;;;;;;27.76;41.89;101404.03;5046734;28;20041;-67
2022/06/27 04:13:15;;;;;;;1.60;1.50;;;;;;;27.77;41.85;101402.25;5046226;28;20445;-67
2022/06/27 04:15:40;;;;;;;1.90;1.60;;;;;;;27.78;41.73;101404.84;5047973;28;20040;-66
2022/06/27 04:18:06;;;;;;;1.85;1.50;;;;;;;27.78;41.94;101396.81;5048117;28;20025;-68
2022/06/27 04:20:31;;;;;;;1.60;1.50;;;;;;;27.76;41.58;101403.16;5056984;28;20111;-68
2022/06/27 04:22:56;;;;;;;1.55;1.45;;;;;;;27.77;41.46;101408.47;5057474;28;20037;-68
2022/06/27 04:25:22;;;;;;;2.22;1.70;;;;;;;27.80;41.73;101402.09;5048063;28;20025;-68
2022/06/27 04:27:47;;;;;;;1.70;1.60;;;;;;;27.83;41.40;101396.56;5053738;28;20040;-68
2022/06/27 04:30:16;;;;;;;1.92;1.50;;;;;;;27.79;41.51;101398.56;5067171;28;20160;-68
2022/06/27 04:32:44;;;;;;;1.83;1.63;;;;;;;27.79;41.56;101395.88;5067625;28;20033;-68
2022/06/27 04:35:10;;;;;;;1.80;1.50;;;;;;;27.77;41.72;101391.53;5062779;28;20024;-67
2022/06/27 04:37:41;;;;;;;1.90;1.60;;;;;;;27.77;41.75;101379.00;5068365;28;20040;-65
2022/06/27 04:40:10;;;;;;;1.98;1.63;;;;;;;27.75;41.67;101380.88;5051061;28;20032;-68
2022/06/27 04:42:35;;;;;;;1.73;1.50;;;;;;;27.80;41.35;101381.53;5051458;28;20092;-65
2022/06/27 04:45:02;;;;;;;1.60;1.50;;;;;;;27.77;41.71;101370.09;5068487;28;20116;-68
2022/06/27 04:47:27;;;;;;;1.77;1.60;;;;;;;27.76;41.70;101363.84;5062146;28;20036;-67
2022/06/27 04:49:52;;;;;;;1.92;1.63;;;;;;;27.76;41.47;101357.63;5070857;28;20085;-68
2022/06/27 04:52:18;;;;;;;1.73;1.50;;;;;;;27.75;41.46;101356.75;5071219;28;20043;-65
2022/06/27 04:54:43;;;;;;;1.65;1.50;;;;;;;27.79;41.38;101357.50;5054314;28;20040;-65
2022/06/27 04:57:09;;;;;;;1.60;1.50;;;;;;;27.75;41.71;101362.13;5057759;28;20024;-67
2022/06/27 04:59:35;;;;;;;1.80;1.60;;;;;;;27.76;41.60;101358.50;5061984;28;20571;-68
2022/06/27 05:02:00;;;;;;;1.90;1.70;;;;;;;27.75;41.84;101363.97;5067679;28;20028;-68
2022/06/27 05:04:28;;;;;;;1.90;1.50;;;;;;;27.75;41.55;101363.97;5066698;28;20043;-67
2022/06/27 05:06:55;;;;;;;2.00;1.63;;;;;;;27.74;41.93;101375.63;5062814;28;20122;-67
2022/06/27 05:09:21;;;;;;;1.90;1.67;;;;;;;27.73;41.57;101389.94;5052340;28;20112;-65
2022/06/27 05:11:48;;;;;;;1.65;1.55;;;;;;;27.72;41.64;101378.34;5051339;28;20047;-67
2022/06/27 05:14:14;;;;;;;1.70;1.50;;;;;;;27.73;41.40;101380.09;5060119;28;20033;-67
2022/06/27 05:16:39;;;;;;;1.50;1.40;;;;;;;27.73;41.65;101379.22;5062398;28;20394;-67
2022/06/27 05:19:05;;;;;;;1.70;1.60;;;;;;;27.73;41.47;101381.91;5061529;28;20063;-67
2022/06/27 05:21:30;;;;;;;1.70;1.55;;;;;;;27.72;41.45;101388.22;5065202;28;20044;-67
2022/06/27 05:23:56;;;;;;;1.80;1.50;;;;;;;27.71;41.63;101373.94;5070808;28;20028;-67
2022/06/27 05:26:21;;;;;;;1.80;1.60;;;;;;;27.71;41.75;101381.97;5068761;28;20035;-67
2022/06/27 05:28:47;;;;;;;1.73;1.42;;;;;;;27.70;41.64;101384.72;5056489;28;20045;-67
2022/06/27 05:31:12;;;;;;;1.88;1.63;;;;;;;27.70;41.50;101387.41;5049489;28;20079;-67
2022/06/27 05:33:38;;;;;;;1.50;1.40;;;;;;;27.69;41.46;101394.56;5067833;28;20435;-67
2022/06/27 05:36:05;;;;;;;2.20;1.70;;;;;;;27.70;41.75;101380.25;5052976;28;20029;-67
2022/06/27 05:38:31;;;;;;;1.55;1.45;;;;;;;27.67;41.44;101364.34;5050600;28;20067;-68
2022/06/27 05:40:58;;;;;;;2.35;1.50;;;;;;;27.69;41.58;101366.94;5050169;28;20075;-67
2022/06/27 05:43:24;;;;;;;1.70;1.52;;;;;;;27.69;41.49;101357.06;5058023;28;20033;-67
2022/06/27 05:45:49;;;;;;;1.90;1.70;;;;;;;27.69;41.68;101357.06;5069504;28;20029;-68
2022/06/27 05:48:15;;;;;;;1.80;1.50;;;;;;;27.70;41.44;101364.16;5070275;28;20036;-68
2022/06/27 05:50:40;;;;;;;2.05;1.58;;;;;;;27.69;41.69;101365.09;5070011;28;20037;-69
2022/06/27 05:53:06;;;;;;;1.70;1.60;;;;;;;27.72;41.61;101361.41;5059278;28;20119;-68
2022/06/27 05:55:32;;;;;;;1.83;1.50;;;;;;;27.69;41.65;101337.47;5059094;28;20478;-68
2022/06/27 05:58:00;;;;;;;1.63;1.48;;;;;;;27.69;41.51;101341.00;5064370;28;20083;-68
2022/06/27 06:00:27;;;;;;;2.28;1.60;;;;;;;27.68;41.45;101344.66;5049841;28;20032;-67
2022/06/27 06:02:54;;;;;;;1.85;1.67;;;;;;;27.68;41.54;101346.44;5060181;28;20098;-68
2022/06/27 06:05:20;;;;;;;2.08;1.58;;;;;;;27.69;41.65;101340.16;5053098;28;20043;-68
2022/06/27 06:07:46;;;;;;;1.70;1.50;;;;;;;27.70;41.67;101333.81;5049620;28;20040;-68
2022/06/27 06:10:12;;;;;;;1.70;1.50;;;;;;;27.69;41.36;101335.63;5063839;28;20082;-68
2022/06/27 06:12:37;;;;;;;1.88;1.45;;;;;;;27.70;41.91;101323.97;5068585;28;20047;-68
2022/06/27 06:15:04;;;;;;;2.35;1.45;;;;;;;27.68;41.80;101325.88;5050091;28;20403;-67
2022/06/27 06:17:34;;;;;;;1.80;1.50;;;;;;;27.69;41.69;101351.72;5055452;28;20110;-68
2022/06/27 06:20:00;;;;;;;1.70;1.30;;;;;;;27.70;41.73;101355.25;5056456;28;20491;-68
2022/06/27 06:22:26;;;;;;;2.40;1.52;;;;;;;27.69;41.86;101340.16;5048722;28;20040;-68
2022/06/27 06:24:51;;;;;;;1.50;1.40;;;;;;;27.68;41.72;101327.69;5048505;28;20033;-68
2022/06/27 06:27:18;;;;;;;1.45;1.35;;;;;;;27.66;41.85;101335.81;5047137;28;20029;-68
2022/06/27 06:29:44;;;;;;;2.20;1.30;;;;;;;27.66;41.66;101341.16;5054709;28;20044;-67
2022/06/27 06:32:10;;;;;;;1.50;1.40;;;;;;;27.60;42.21;101344.16;5068644;28;20021;-65
2022/06/27 06:34:36;;;;;;;1.55;1.40;;;;;;;27.65;41.90;101350.13;5050655;28;20059;-64
2022/06/27 06:37:02;;;;;;;1.60;1.40;;;;;;;27.68;42.07;101362.53;5034319;28;20471;-64
2022/06/27 06:39:27;;;;;;;1.65;1.45;;;;;;;27.66;42.42;101370.63;5061169;28;20021;-64
2022/06/27 06:41:53;;;;;;;1.75;1.52;;;;;;;27.65;42.50;101368.88;5051890;28;20060;-65
2022/06/27 06:44:20;;;;;;;1.90;1.50;;;;;;;27.70;42.60;101371.31;5057297;28;20106;-65
2022/06/27 06:46:46;;;;;;;1.73;1.60;;;;;;;27.70;42.86;101377.56;5049441;28;20029;-63
2022/06/27 06:49:11;;;;;;;2.28;1.45;;;;;;;27.71;42.87;101387.34;5064703;28;20028;-64
2022/06/27 06:51:39;;;;;;;2.75;1.50;;;;;;;27.71;43.01;101408.78;5069437;28;20044;-64
2022/06/27 06:54:06;;;;;;;2.53;1.40;;;;;;;27.71;43.42;101427.53;5056670;28;20032;-65
2022/06/27 06:56:32;;;;;;;5.88;1.65;;;;;;;27.68;44.71;101427.69;5051282;28;20112;-67
2022/06/27 06:58:59;;;;;;;8.05;1.52;;;;;;;27.60;45.21;101429.00;5046112;28;20119;-70
2022/06/27 07:01:25;;;;;;;3.05;1.70;;;;;;;27.64;44.97;101411.81;5024911;28;20804;-69
2022/06/27 07:03:51;;;;;;;1.75;1.60;;;;;;;27.39;45.57;101425.50;5026316;28;20159;-66
2022/06/27 07:06:17;;;;;;;5.13;1.70;;;;;;;27.68;45.07;101414.28;5030222;28;20033;-67
2022/06/27 07:08:44;;;;;;;2.28;1.50;;;;;;;27.73;44.81;101431.00;5036763;28;20483;-65
2022/06/27 07:11:10;;;;;;;2.58;1.60;;;;;;;27.81;44.81;101439.50;5035331;28;20028;-64
2022/06/27 07:13:37;;;;;;;7.07;1.75;;;;;;;27.80;44.67;101447.66;5031503;28;20456;-64
2022/06/27 07:16:05;;;;;;;3.40;1.60;;;;;;;27.88;44.52;101458.84;5038309;28;20630;-64
2022/06/27 07:18:32;;;;;;;5.10;1.60;;;;;;;27.92;44.27;101455.09;5035115;28;20396;-65
2022/06/27 07:20:58;;;;;;;3.05;1.60;;;;;;;27.99;44.02;101456.53;5042680;28;20083;-64
2022/06/27 07:23:23;;;;;;;15.55;1.80;;;;;;;28.01;44.17;101459.09;5044502;28;20020;-64
2022/06/27 07:25:49;;;;;;;2.47;1.50;;;;;;;28.08;43.99;101465.91;5025693;28;20048;-63
2022/06/27 07:28:16;;;;;;;2.33;1.45;;;;;;;28.08;43.76;101474.81;5036123;28;20033;-63
2022/06/27 07:30:42;;;;;;;3.22;1.42;;;;;;;28.11;43.98;101471.13;5037694;28;20059;-63
2022/06/27 07:33:08;;;;;;;3.65;1.70;;;;;;;28.12;43.84;101470.16;5033234;28;20068;-63
2022/06/27 07:35:33;;;;;;;1.80;1.40;;;;;;;28.05;44.09;101469.63;5029837;28;20043;-63
2022/06/27 07:38:00;;;;;;;2.83;1.60;;;;;;;28.11;44.02;101471.13;5029139;28;20033;-63
2022/06/27 07:40:25;;;;;;;2.80;1.63;;;;;;;28.06;43.87;101473.13;5038114;28;20032;-63
2022/06/27 07:42:53;;;;;;;2.25;1.60;;;;;;;28.18;43.75;101465.38;5028675;28;20471;-63
2022/06/27 07:45:20;;;;;;;1.98;1.40;;;;;;;28.25;43.38;101457.91;5029321;28;20087;-63
2022/06/27 07:47:48;;;;;;;2.88;1.33;;;;;;;28.28;43.27;101441.66;5034083;28;20044;-63
2022/06/27 07:53:11;;;;;;;4.28;1.40;;;;;;;28.35;43.43;101410.91;5029332;28;20548;-64
2022/06/27 07:55:39;;;;;;;1.92;1.45;;;;;;;28.42;43.64;101382.78;5027921;28;20559;-63
2022/06/27 07:58:07;;;;;;;5.40;1.70;;;;;;;28.39;43.03;101380.28;5030041;28;20064;-63
2022/06/27 08:00:33;;;;;;;3.80;1.60;;;;;;;28.40;42.82;101387.41;5027733;28;20128;-63
2022/06/27 08:02:59;;;;;;;10.60;1.77;;;;;;;28.39;43.13;101396.38;5027603;28;20036;-63
2022/06/27 08:05:24;;;;;;;4.40;1.65;;;;;;;28.35;43.65;101391.28;5027581;28;20037;-64
2022/06/27 08:07:50;;;;;;;5.68;1.50;;;;;;;28.39;43.14;101374.94;5027592;28;20557;-63
2022/06/27 08:10:16;;;;;;;4.45;1.70;;;;;;;28.56;42.69;101374.91;5031219;28;20033;-63
2022/06/27 08:12:41;;;;;;;9.25;1.70;;;;;;;28.58;43.02;101380.19;5031225;28;20546;-63
2022/06/27 08:15:07;;;;;;;4.72;1.90;;;;;;;28.49;43.56;101397.63;5031309;28;20033;-63
2022/06/27 08:17:32;;;;;;;3.85;1.55;;;;;;;28.54;43.06;101392.91;5035692;28;20037;-63
2022/06/27 08:19:58;;;;;;;3.83;1.70;;;;;;;28.57;43.27;101390.03;5047948;28;20029;-64
2022/06/27 08:22:25;;;;;;;4.90;1.73;;;;;;;28.59;43.26;101385.47;5031785;28;20088;-63
2022/06/27 08:24:51;;;;;;;3.63;1.63;;;;;;;28.55;43.40;101383.88;5043766;28;20115;-64
2022/06/27 08:27:16;;;;;;;4.40;1.70;;;;;;;28.60;43.27;101384.53;5039283;28;20736;-63
2022/06/27 08:29:43;;;;;;;3.28;1.70;;;;;;;28.69;43.21;101382.28;5031111;28;20120;-65
2022/06/27 08:32:09;;;;;;;4.93;1.70;;;;;;;28.70;42.90;101394.75;5034216;28;20026;-64
2022/06/27 08:34:35;;;;;;;3.53;1.50;;;;;;;28.64;43.26;101394.16;5045693;28;20029;-64
2022/06/27 08:37:01;;;;;;;2.72;1.40;;;;;;;28.60;43.50;101415.84;5040289;28;20041;-64
2022/06/27 08:39:28;;;;;;;3.35;1.48;;;;;;;28.58;43.17;101433.84;5031581;28;20033;-63
2022/06/27 08:41:55;;;;;;;4.45;1.58;;;;;;;28.62;43.34;101448.81;5036527;28;20049;-65
2022/06/27 08:44:23;;;;;;;7.68;1.90;;;;;;;28.55;43.46;101450.97;5050742;28;20032;-66
2022/06/27 08:46:51;;;;;;;3.42;1.65;;;;;;;28.31;44.43;101464.75;5047995;28;20512;-65
2022/06/27 08:49:16;;;;;;;5.43;1.88;;;;;;;28.26;44.35;101467.69;5039184;28;20025;-64
2022/06/27 08:51:43;;;;;;;3.30;1.80;;;;;;;28.23;44.58;101471.41;5030411;28;20063;-66
2022/06/27 08:54:09;;;;;;;2.78;1.60;;;;;;;28.21;44.46;101462.56;5039018;28;20079;-65
2022/06/27 08:56:34;;;;;;;2.00;1.60;;;;;;;28.27;44.23;101460.50;5038636;28;20487;-66
2022/06/27 08:59:00;;;;;;;2.47;1.50;;;;;;;28.33;44.37;101469.13;5030471;28;20120;-66
2022/06/27 09:01:27;;;;;;;20.13;1.90;;;;;;;28.48;43.92;101451.38;5030959;28;20037;-66
2022/06/27 09:04:06;;;;;;;6.68;1.70;;;;;;;28.62;43.28;101441.63;5031796;28;20029;-64
2022/06/27 09:06:51;;;;;;;4.85;1.70;;;;;;;28.74;43.03;101448.22;5050027;28;20068;-63
2022/06/27 09:09:17;;;;;;;3.60;1.60;;;;;;;28.82;43.09;101453.16;5037590;28;20099;-66
2022/06/27 09:11:44;;;;;;;7.32;1.55;;;;;;;28.80;43.18;101447.00;5032415;28;20017;-62
2022/06/27 09:14:42;;;;;;;2.75;1.50;;;;;;;28.65;43.38;101457.59;5036850;28;20041;-65
2022/06/27 09:17:13;;;;;;;2.03;1.40;;;;;;;28.55;43.54;101468.88;5031158;28;20033;-66
2022/06/27 09:19:46;;;;;;;2.60;1.58;;;;;;;28.44;44.01;101473.91;5050469;28;20108;-64
2022/06/27 09:22:15;;;;;;;5.60;1.63;;;;;;;28.50;43.67;101487.88;5033045;28;20076;-64
2022/06/27 09:24:59;;;;;;;4.25;1.50;;;;;;;28.52;43.44;101487.81;5029910;28;20037;-65
2022/06/27 09:27:44;;;;;;;2.88;1.42;;;;;;;28.50;43.51;101506.66;5030418;28;20036;-66
2022/06/27 09:30:22;;;;;;;3.72;1.52;;;;;;;28.47;43.75;101522.06;5042662;28;20029;-65
2022/06/27 09:32:58;;;;;;;2.17;1.48;;;;;;;28.60;43.01;101528.53;5050690;28;20044;-66
2022/06/27 09:35:25;;;;;;;6.13;1.70;;;;;;;28.57;43.45;101528.69;5045441;28;20028;-65
2022/06/27 09:37:55;;;;;;;5.30;1.52;;;;;;;28.67;43.09;101507.63;5033273;28;20038;-62
2022/06/27 09:40:26;;;;;;;4.60;1.50;;;;;;;28.81;43.19;101489.88;5032332;28;20030;-64
2022/06/27 09:42:56;;;;;;;5.13;1.63;;;;;;;28.64;43.15;101498.78;5029336;28;20037;-64
2022/06/27 09:45:24;;;;;;;2.90;1.48;;;;;;;28.56;43.51;101502.78;5031357;28;20033;-66
2022/06/27 09:47:58;;;;;;;3.95;1.40;;;;;;;28.52;43.21;101507.47;5030002;28;20029;-65
2022/06/27 09:50:24;;;;;;;3.85;1.30;;;;;;;28.53;43.13;101511.00;5028226;28;20063;-67
2022/06/27 09:52:51;;;;;;;3.08;1.40;;;;;;;28.53;43.10;101514.56;5028645;28;20413;-66
2022/06/27 09:55:20;;;;;;;5.13;1.60;;;;;;;28.52;43.01;101518.19;5032562;28;20410;-66
2022/06/27 09:57:46;;;;;;;2.97;1.70;;;;;;;28.48;43.15;101521.97;5043706;28;20064;-64
2022/06/27 10:00:13;;;;;;;3.13;1.60;;;;;;;28.48;43.06;101513.06;5029665;28;20144;-66
2022/06/27 10:02:39;;;;;;;3.13;1.60;;;;;;;28.51;43.66;101507.53;5029646;28;20048;-67
2022/06/27 10:05:05;;;;;;;2.50;1.60;;;;;;;28.52;43.05;101510.16;5037262;28;20029;-65
2022/06/27 10:07:31;;;;;;;2.55;1.45;;;;;;;28.75;42.68;101519.72;5043711;28;20060;-66
2022/06/27 10:09:57;;;;;;;8.68;1.63;;;;;;;28.88;42.31;101519.94;5049173;28;20033;-66
2022/06/27 10:12:36;;;;;;;5.90;1.70;;;;;;;28.90;42.21;101500.13;5031109;28;20028;-64
2022/06/27 10:15:10;;;;;;;4.43;1.60;;;;;;;28.80;42.17;101511.41;5032912;28;20859;-66
2022/06/27 10:17:51;;;;;;;3.17;1.50;;;;;;;28.82;42.61;101523.81;5037297;28;20032;-68
2022/06/27 10:20:21;;;;;;;2.45;1.50;;;;;;;28.97;42.21;101525.69;5049294;28;20032;-64
2022/06/27 10:23:06;;;;;;;4.45;1.40;;;;;;;29.09;42.27;101515.25;5030647;28;20152;-64
2022/06/27 10:25:32;;;;;;;5.50;1.35;;;;;;;29.08;42.10;101522.44;5045017;28;20045;-64
2022/06/27 10:28:13;;;;;;;2.97;1.55;;;;;;;29.07;41.90;101520.72;5049253;28;20025;-65
2022/06/27 10:30:42;;;;;;;4.45;1.40;;;;;;;29.01;41.89;101518.34;5047646;28;20033;-64
2022/06/27 10:33:25;;;;;;;3.35;1.40;;;;;;;29.06;41.83;101516.28;5029204;28;20467;-65
2022/06/27 10:36:03;;;;;;;3.47;1.40;;;;;;;29.11;42.31;101519.59;5039878;28;20463;-65
2022/06/27 10:38:38;;;;;;;3.53;1.50;;;;;;;29.04;42.17;101511.00;5037723;28;20056;-66
2022/06/27 10:41:25;;;;;;;5.88;1.50;;;;;;;29.12;42.23;101515.09;5028679;28;20049;-67
2022/06/27 10:43:54;;;;;;;7.38;1.40;;;;;;;29.11;41.95;101495.41;5024664;28;20450;-67
2022/06/27 10:46:20;;;;;;;5.50;1.38;;;;;;;29.10;42.43;101504.41;5042489;28;20128;-67
2022/06/27 10:48:47;;;;;;;3.70;1.48;;;;;;;29.03;42.16;101524.53;5047610;28;20919;-67
2022/06/27 10:51:35;;;;;;;4.55;1.67;;;;;;;28.96;42.36;101526.66;5048469;28;20024;-67
2022/06/27 10:54:06;;;;;;;8.45;1.63;;;;;;;28.92;42.72;101525.06;5045547;28;20717;-67
2022/06/27 10:56:36;;;;;;;5.28;1.50;;;;;;;28.90;42.88;101524.28;5028078;28;20033;-67
2022/06/27 10:59:04;;;;;;;4.57;1.52;;;;;;;28.90;42.57;101532.34;5028067;28;20361;-67
2022/06/27 11:01:30;;;;;;;7.47;1.75;;;;;;;28.83;42.86;101508.59;5028721;28;20025;-67
2022/06/27 11:03:57;;;;;;;5.05;1.60;;;;;;;28.84;43.10;101500.47;5028410;28;20030;-67
2022/06/27 11:06:23;;;;;;;3.60;1.58;;;;;;;28.82;42.65;101496.97;5028570;28;20033;-67
2022/06/27 11:08:52;;;;;;;4.70;1.65;;;;;;;28.80;42.87;101498.88;5027302;28;20152;-68
2022/06/27 11:11:25;;;;;;;2.30;1.40;;;;;;;28.80;42.87;101501.56;5028131;28;20025;-67
2022/06/27 11:13:59;;;;;;;4.30;1.70;;;;;;;28.75;43.20;101500.06;5028964;28;20106;-67
2022/06/27 11:16:26;;;;;;;4.95;1.50;;;;;;;28.74;43.41;101507.25;5027403;28;20075;-67
2022/06/27 11:19:03;;;;;;;3.33;1.50;;;;;;;28.74;42.82;101514.41;5024961;28;20026;-67
2022/06/27 11:21:34;;;;;;;3.35;1.42;;;;;;;28.70;43.25;101524.44;5025557;28;20136;-67
2022/06/27 11:24:04;;;;;;;5.00;1.50;;;;;;;28.63;43.20;101523.88;5023568;28;20029;-68
2022/06/27 11:26:43;;;;;;;5.35;1.88;;;;;;;28.57;43.06;101523.31;5030330;28;20032;-66
2022/06/27 11:32:04;;;;;;;5.75;2.22;;;;;;;28.74;42.53;101499.19;5025879;28;20048;-65
2022/06/27 11:34:36;;;;;;;4.03;2.00;;;;;;;28.80;42.02;101488.13;5029989;28;20033;-68
2022/06/27 11:37:08;;;;;;;3.72;1.92;;;;;;;28.75;42.23;101492.00;5028221;28;20727;-68